Time;durP1;ratioP1;P1;durP2;ratioP2;P2;SDS_P1;SDS_P2;PMS_P1;PMS_P2;Temp;Humidity;BMP_temperature;BMP_pressure;BME280_temperature;BME280_humidity;BME280_pressure;Samples;Min_cycle;Max_cycle;Signal;HPM_P1;HPM_P2
2023/10/29 00:00:00;;;;;;;9.07;5.68;;;;;;;8.22;100.00;99830.88;4954811;28;20134;-76
2023/10/29 00:02:27;;;;;;;9.13;6.13;;;;;;;8.23;100.00;99831.69;4925656;28;20043;-74
2023/10/29 00:04:52;;;;;;;11.88;6.88;;;;;;;8.21;100.00;99824.75;4961621;28;20098;-74
2023/10/29 00:07:18;;;;;;;9.93;5.80;;;;;;;8.21;100.00;99818.63;4965417;28;20420;-74
2023/10/29 00:09:44;;;;;;;10.57;6.53;;;;;;;8.20;100.00;99811.69;4932864;28;20066;-74
2023/10/29 00:12:10;;;;;;;12.90;6.78;;;;;;;8.19;100.00;99810.88;4937652;28;20042;-73
2023/10/29 00:14:39;;;;;;;9.43;6.15;;;;;;;8.19;100.00;99812.75;4943353;28;20031;-75
2023/10/29 00:17:04;;;;;;;10.77;6.07;;;;;;;8.18;100.00;99800.50;4943024;28;20508;-74
2023/10/29 00:19:32;;;;;;;9.02;5.53;;;;;;;8.17;100.00;99798.91;4945780;28;20116;-74
2023/10/29 00:21:58;;;;;;;14.38;5.90;;;;;;;8.18;100.00;99792.50;4945656;28;20090;-74
2023/10/29 00:24:23;;;;;;;9.60;5.82;;;;;;;8.18;100.00;99792.50;4958321;28;20172;-74
2023/10/29 00:26:50;;;;;;;8.55;5.82;;;;;;;8.18;100.00;99781.81;4944788;28;20035;-73
2023/10/29 00:29:15;;;;;;;8.65;5.38;;;;;;;8.20;100.00;99775.16;4946354;28;20618;-74
2023/10/29 00:31:41;;;;;;;10.30;5.85;;;;;;;8.18;100.00;99771.16;4929258;28;20038;-74
2023/10/29 00:34:07;;;;;;;8.75;5.45;;;;;;;8.18;100.00;99760.47;4947059;28;20038;-74
2023/10/29 00:36:33;;;;;;;11.05;5.15;;;;;;;8.17;100.00;99748.22;4946776;28;20042;-76
2023/10/29 00:38:59;;;;;;;8.65;5.32;;;;;;;8.17;100.00;99732.22;4926573;28;20580;-73
2023/10/29 00:41:25;;;;;;;9.02;5.25;;;;;;;8.18;100.00;99739.16;4940694;28;20058;-75
2023/10/29 00:43:51;;;;;;;9.80;5.10;;;;;;;8.17;100.00;99749.03;4943490;28;20093;-73
2023/10/29 00:46:17;;;;;;;9.63;5.30;;;;;;;8.18;100.00;99739.16;4931004;28;20374;-73
2023/10/29 00:48:43;;;;;;;8.23;5.65;;;;;;;8.18;100.00;99734.59;4932655;28;20496;-72
2023/10/29 00:51:10;;;;;;;10.65;5.18;;;;;;;8.21;100.00;99727.94;4933835;28;20031;-72
2023/10/29 00:53:36;;;;;;;10.10;5.43;;;;;;;8.19;100.00;99733.53;4946423;28;20070;-73
2023/10/29 00:56:03;;;;;;;7.05;4.50;;;;;;;8.21;100.00;99749.28;4946044;28;20101;-75
2023/10/29 00:58:29;;;;;;;6.05;4.82;;;;;;;8.21;100.00;99750.06;4945427;28;20035;-74
2023/10/29 01:00:55;;;;;;;11.10;6.47;;;;;;;8.23;100.00;99755.13;4949989;28;20041;-76
2023/10/29 01:03:22;;;;;;;9.23;4.93;;;;;;;8.24;100.00;99748.72;4937846;28;20956;-73
2023/10/29 01:05:49;;;;;;;7.07;4.90;;;;;;;8.24;100.00;99724.69;4931974;28;20042;-73
2023/10/29 01:08:15;;;;;;;9.07;4.55;;;;;;;8.23;100.00;99707.13;4932313;28;20048;-74
2023/10/29 01:10:41;;;;;;;7.78;5.18;;;;;;;8.24;100.00;99700.69;4951186;28;20141;-74
2023/10/29 01:13:07;;;;;;;6.63;4.80;;;;;;;8.25;100.00;99715.63;4933354;28;20129;-76
2023/10/29 01:15:35;;;;;;;9.93;5.00;;;;;;;8.24;100.00;99716.69;4932802;28;20038;-76
2023/10/29 01:18:01;;;;;;;9.13;4.32;;;;;;;8.27;100.00;99707.38;4948315;28;20035;-73
2023/10/29 01:20:27;;;;;;;7.97;4.55;;;;;;;8.29;100.00;99711.34;4955061;28;20041;-74
2023/10/29 01:22:53;;;;;;;10.52;5.10;;;;;;;8.29;100.00;99698.00;4945105;28;20033;-75
2023/10/29 01:25:19;;;;;;;6.78;4.80;;;;;;;8.29;100.00;99700.66;4964984;28;20726;-76
2023/10/29 01:27:45;;;;;;;8.52;4.30;;;;;;;8.28;100.00;99706.28;4931452;28;20038;-76
2023/10/29 01:30:12;;;;;;;8.07;4.50;;;;;;;8.31;100.00;99703.03;4928965;28;20073;-75
2023/10/29 01:32:40;;;;;;;7.95;4.40;;;;;;;8.32;100.00;99707.31;4948510;28;20122;-77
2023/10/29 01:35:07;;;;;;;6.95;4.47;;;;;;;8.31;100.00;99698.50;4945647;28;20042;-77
2023/10/29 01:37:32;;;;;;;6.80;4.03;;;;;;;8.33;100.00;99699.03;4935463;28;20421;-76
2023/10/29 01:39:58;;;;;;;6.95;4.10;;;;;;;8.34;100.00;99689.97;4946947;28;20038;-76
2023/10/29 01:42:23;;;;;;;7.15;4.38;;;;;;;8.35;100.00;99686.25;4943082;28;20031;-76
2023/10/29 01:44:49;;;;;;;6.93;4.82;;;;;;;8.35;100.00;99686.25;4948337;28;20110;-76
2023/10/29 01:47:15;;;;;;;6.82;4.80;;;;;;;8.34;100.00;99684.63;4960711;28;20065;-78
2023/10/29 01:49:40;;;;;;;7.13;4.70;;;;;;;8.36;100.00;99682.50;4921224;28;20027;-76
2023/10/29 01:52:06;;;;;;;7.38;4.38;;;;;;;8.36;100.00;99687.81;4947476;28;20039;-77
2023/10/29 01:54:32;;;;;;;10.25;4.60;;;;;;;8.38;100.00;99688.34;4949437;28;20093;-77
2023/10/29 01:56:58;;;;;;;9.43;5.20;;;;;;;8.40;100.00;99686.19;4952444;28;20479;-76
2023/10/29 01:59:24;;;;;;;8.05;4.63;;;;;;;8.42;100.00;99680.59;4951632;28;20046;-74
2023/10/29 02:01:50;;;;;;;9.48;4.35;;;;;;;8.43;100.00;99682.16;4949588;28;20038;-76
2023/10/29 02:04:16;;;;;;;5.90;4.05;;;;;;;8.42;100.00;99670.69;4928181;28;20382;-76
2023/10/29 02:06:42;;;;;;;9.93;4.10;;;;;;;8.44;100.00;99662.41;4931499;28;20493;-77
2023/10/29 02:09:09;;;;;;;9.55;4.45;;;;;;;8.46;100.00;99658.38;4944273;28;20035;-76
2023/10/29 02:11:36;;;;;;;9.50;5.45;;;;;;;8.46;100.00;99650.38;4934173;28;20527;-77
2023/10/29 02:14:02;;;;;;;5.32;4.03;;;;;;;8.47;100.00;99651.97;4931042;28;20050;-76
2023/10/29 02:16:28;;;;;;;5.95;4.15;;;;;;;8.47;100.00;99641.31;4947939;28;20039;-77
2023/10/29 02:18:53;;;;;;;10.35;4.80;;;;;;;8.48;100.00;99637.56;4947750;28;20030;-75
2023/10/29 02:21:20;;;;;;;7.35;3.90;;;;;;;8.50;100.00;99628.47;4944472;28;20039;-75
2023/10/29 02:23:46;;;;;;;7.18;4.78;;;;;;;8.52;100.00;99620.97;4964391;28;20145;-76
2023/10/29 02:26:12;;;;;;;9.43;4.30;;;;;;;8.52;100.00;99620.97;4951410;28;20415;-76
2023/10/29 02:28:38;;;;;;;11.15;3.80;;;;;;;8.54;100.00;99621.50;4932180;28;20034;-73
2023/10/29 02:31:03;;;;;;;6.82;3.80;;;;;;;8.54;100.00;99598.28;4949554;28;20904;-73
2023/10/29 02:33:30;;;;;;;10.10;3.90;;;;;;;8.56;100.00;99603.34;4944740;28;20034;-74
2023/10/29 02:35:56;;;;;;;8.40;4.30;;;;;;;8.54;100.00;99592.94;4929852;28;20050;-75
2023/10/29 02:38:25;;;;;;;7.50;4.30;;;;;;;8.56;100.00;99584.66;4940553;28;20046;-75
2023/10/29 02:40:51;;;;;;;8.35;4.10;;;;;;;8.57;100.00;99591.56;4938242;28;20039;-75
2023/10/29 02:43:17;;;;;;;6.95;3.83;;;;;;;8.58;100.00;99590.50;4968125;28;20038;-75
2023/10/29 02:45:43;;;;;;;5.68;3.35;;;;;;;8.59;100.00;99574.19;4962046;28;21167;-74
2023/10/29 02:48:08;;;;;;;8.95;4.28;;;;;;;8.58;100.00;99567.25;4947184;28;20039;-76
2023/10/29 02:50:40;;;;;;;7.47;3.83;;;;;;;8.59;100.00;99568.06;4944257;28;20042;-76
2023/10/29 02:53:06;;;;;;;6.97;3.38;;;;;;;8.61;100.00;99557.91;4948149;28;20855;-79
2023/10/29 02:55:32;;;;;;;6.35;3.92;;;;;;;8.64;100.00;99560.00;4948769;28;20983;-78
2023/10/29 02:57:58;;;;;;;7.20;4.10;;;;;;;8.65;100.00;99546.34;4943798;28;20045;-76
2023/10/29 03:00:24;;;;;;;9.13;4.13;;;;;;;8.67;100.00;99543.41;4932384;28;20437;-75
2023/10/29 03:02:49;;;;;;;5.82;4.30;;;;;;;8.68;100.00;99545.00;4944307;28;20793;-74
2023/10/29 03:05:15;;;;;;;10.02;3.72;;;;;;;8.71;100.00;99539.09;4932185;28;20483;-72
2023/10/29 03:07:41;;;;;;;7.47;3.58;;;;;;;8.71;100.00;99528.41;4943195;28;20114;-75
2023/10/29 03:10:07;;;;;;;11.13;4.40;;;;;;;8.73;100.00;99526.25;4947530;28;20138;-73
2023/10/29 03:12:32;;;;;;;8.13;3.63;;;;;;;8.74;100.00;99517.19;4949172;28;20061;-76
2023/10/29 03:15:00;;;;;;;5.88;3.53;;;;;;;8.75;100.00;99524.09;4968365;28;20591;-76
2023/10/29 03:17:25;;;;;;;9.27;3.85;;;;;;;8.78;100.00;99512.03;4948239;28;20026;-76
2023/10/29 03:19:53;;;;;;;7.47;4.25;;;;;;;8.78;100.00;99510.16;4934763;28;20077;-76
2023/10/29 03:22:18;;;;;;;9.93;4.00;;;;;;;8.80;100.00;99505.31;4944603;28;20061;-76
2023/10/29 03:24:44;;;;;;;8.95;3.75;;;;;;;8.79;100.00;99495.72;4930773;28;20130;-75
2023/10/29 03:27:10;;;;;;;5.85;3.13;;;;;;;8.82;100.00;99491.72;4928827;28;20644;-76
2023/10/29 03:29:35;;;;;;;5.63;3.33;;;;;;;8.83;100.00;99486.09;4948314;28;20034;-75
2023/10/29 03:32:01;;;;;;;5.75;4.43;;;;;;;8.85;100.00;99475.91;4930912;28;20070;-75
2023/10/29 03:34:26;;;;;;;6.25;3.90;;;;;;;8.86;100.00;99472.16;4947019;28;20655;-75
2023/10/29 03:36:52;;;;;;;7.40;4.32;;;;;;;8.89;100.00;99465.44;4938696;28;20034;-75
2023/10/29 03:39:18;;;;;;;5.07;3.35;;;;;;;8.88;100.00;99464.66;4941015;28;20145;-75
2023/10/29 03:41:43;;;;;;;5.65;3.70;;;;;;;8.91;100.00;99448.06;4944775;28;20039;-76
2023/10/29 03:44:09;;;;;;;6.82;4.18;;;;;;;8.92;100.00;99449.63;4945243;28;20533;-75
2023/10/29 03:46:35;;;;;;;5.22;3.42;;;;;;;8.93;100.00;99445.09;4929957;28;20169;-77
2023/10/29 03:49:01;;;;;;;6.20;4.13;;;;;;;8.95;100.00;99438.38;4930419;28;20580;-76
2023/10/29 03:51:28;;;;;;;6.05;3.63;;;;;;;8.96;100.00;99439.19;4931438;28;20030;-75
2023/10/29 03:53:57;;;;;;;6.15;4.05;;;;;;;9.00;100.00;99440.97;4914730;28;20093;-76
2023/10/29 03:56:23;;;;;;;5.53;4.15;;;;;;;9.00;100.00;99430.28;4945446;28;20507;-77
2023/10/29 03:58:49;;;;;;;8.18;3.50;;;;;;;9.02;100.00;99433.47;4949606;28;20555;-73
2023/10/29 04:01:18;;;;;;;;;;;;;;;9.06;100.00;99440.88;4922212;28;20031;-76
2023/10/29 04:03:43;;;;;;;7.68;3.78;;;;;;;9.07;100.00;99434.47;4931503;28;19985;-73
2023/10/29 04:06:11;;;;;;;5.85;4.00;;;;;;;9.09;100.00;99438.44;4962609;28;20039;-75
2023/10/29 04:08:38;;;;;;;5.65;3.85;;;;;;;9.11;100.00;99432.81;4931514;28;20042;-75
2023/10/29 04:11:04;;;;;;;8.48;4.00;;;;;;;9.12;100.00;99416.47;4952003;28;20035;-76
2023/10/29 04:13:32;;;;;;;5.45;3.50;;;;;;;9.14;100.00;99408.97;4948060;28;20077;-77
2023/10/29 04:15:57;;;;;;;7.78;4.80;;;;;;;9.18;100.00;99430.56;4946827;28;20042;-77
2023/10/29 04:18:27;;;;;;;5.22;3.20;;;;;;;9.19;100.00;99424.13;4937304;28;20039;-76
2023/10/29 04:20:54;;;;;;;7.22;3.85;;;;;;;9.19;100.00;99406.22;4930399;28;20165;-76
2023/10/29 04:23:20;;;;;;;5.57;3.60;;;;;;;9.21;100.00;99405.91;4951320;28;20031;-76
2023/10/29 04:25:45;;;;;;;4.75;3.00;;;;;;;9.22;100.00;99420.88;4931676;28;20031;-76
2023/10/29 04:28:11;;;;;;;8.23;3.92;;;;;;;9.22;100.00;99418.22;4961140;28;20583;-75
2023/10/29 04:30:37;;;;;;;7.65;3.97;;;;;;;9.24;100.00;99405.34;4928999;28;20816;-75
2023/10/29 04:33:03;;;;;;;6.80;3.80;;;;;;;9.25;100.00;99406.94;4945383;28;20810;-75
2023/10/29 04:35:31;;;;;;;5.65;3.45;;;;;;;9.26;100.00;99405.84;4929982;29;20035;-75
2023/10/29 04:37:57;;;;;;;6.53;4.10;;;;;;;9.27;100.00;99405.53;4960897;28;20492;-74
2023/10/29 04:40:23;;;;;;;6.25;3.83;;;;;;;9.31;100.00;99397.75;4916793;28;20499;-76
2023/10/29 04:42:48;;;;;;;4.55;3.45;;;;;;;9.34;100.00;99391.78;4945247;28;20113;-76
2023/10/29 04:45:14;;;;;;;4.18;3.10;;;;;;;9.36;100.00;99392.31;4957812;28;20686;-75
2023/10/29 04:47:40;;;;;;;5.82;4.03;;;;;;;9.41;100.00;99376.19;4959668;28;20488;-76
2023/10/29 04:52:53;;;;;;;6.50;3.35;;;;;;;9.45;100.00;99379.06;5012977;28;20042;-78
2023/10/29 04:55:19;;;;;;;5.80;3.55;;;;;;;9.44;100.00;99372.94;4982844;28;20034;-80
2023/10/29 04:57:45;;;;;;;5.30;3.40;;;;;;;9.44;100.00;99367.59;4979586;28;20103;-78
2023/10/29 05:00:11;;;;;;;4.72;3.53;;;;;;;9.47;100.00;99368.88;4963987;28;21917;-79
2023/10/29 05:02:37;;;;;;;;;;;;;;;9.49;100.00;99361.38;4982824;28;20038;-79
2023/10/29 05:05:05;;;;;;;4.93;3.08;;;;;;;9.49;100.00;99356.03;4963094;28;19971;-78
2023/10/29 05:07:32;;;;;;;5.03;2.83;;;;;;;9.49;100.00;99359.47;4988488;28;20034;-80
2023/10/29 05:09:57;;;;;;;5.28;3.28;;;;;;;9.49;100.00;99351.47;4985584;28;20026;-78
2023/10/29 05:12:26;;;;;;;6.60;3.20;;;;;;;9.50;100.00;99353.03;4973342;28;20807;-81
2023/10/29 05:14:52;;;;;;;7.13;3.17;;;;;;;9.51;100.00;99343.16;4975675;28;20408;-80
2023/10/29 05:17:18;;;;;;;6.00;3.53;;;;;;;9.51;100.00;99337.81;4972823;28;20030;-78
2023/10/29 05:19:44;;;;;;;5.13;2.97;;;;;;;9.50;100.00;99339.69;4976553;28;20041;-78
2023/10/29 05:22:11;;;;;;;6.50;3.42;;;;;;;9.52;100.00;99324.13;4989290;28;20069;-78
2023/10/29 05:24:37;;;;;;;5.25;3.15;;;;;;;9.54;100.00;99316.59;5003321;28;20056;-79
2023/10/29 05:27:03;;;;;;;6.35;3.30;;;;;;;9.56;100.00;99309.09;4991483;28;20647;-79
2023/10/29 05:29:30;;;;;;;4.57;3.17;;;;;;;9.56;100.00;99302.97;4976597;28;20034;-80
2023/10/29 05:31:57;;;;;;;7.55;3.45;;;;;;;9.56;100.00;99293.06;4967183;28;20065;-79
2023/10/29 05:34:23;;;;;;;6.50;2.80;;;;;;;9.56;100.00;99287.72;4972331;28;20037;-79
2023/10/29 05:36:48;;;;;;;5.68;3.63;;;;;;;9.56;100.00;99298.41;4958655;28;20041;-79
2023/10/29 05:39:15;;;;;;;7.45;3.63;;;;;;;9.60;100.00;99303.16;5315491;22;20080;-80
2023/10/29 05:41:44;;;;;;;6.65;3.55;;;;;;;9.62;100.00;99298.28;5775714;23;20754;-81
2023/10/29 05:44:10;;;;;;;6.10;3.50;;;;;;;9.63;100.00;99303.34;5522386;22;20012;-81
2023/10/29 05:46:37;;;;;;;6.97;2.55;;;;;;;9.67;100.00;99306.22;5229666;23;20122;-81
2023/10/29 05:51:51;;;;;;;5.55;3.60;;;;;;;9.69;100.00;99309.41;6121349;22;20016;-83
2023/10/29 06:06:56;;;;;;;4.60;2.80;;;;;;;9.79;100.00;99309.19;5957092;23;20017;-79
2023/10/29 06:09:21;;;;;;;5.35;2.10;;;;;;;9.82;100.00;99311.25;4898488;29;20597;-80
2023/10/29 06:11:47;;;;;;;8.52;2.85;;;;;;;9.82;100.00;99308.56;5247689;23;20002;-80
2023/10/29 06:14:13;;;;;;;5.30;2.30;;;;;;;9.82;100.00;99300.53;5506591;23;20053;-80
2023/10/29 06:16:40;;;;;;;7.47;2.10;;;;;;;9.89;100.00;99305.50;4930343;23;20028;-81
2023/10/29 06:19:06;;;;;;;4.13;2.15;;;;;;;9.92;100.00;99316.38;4924200;29;20040;-79
2023/10/29 06:21:32;;;;;;;3.88;1.80;;;;;;;9.95;100.00;99312.31;4926173;29;20054;-80
2023/10/29 06:23:58;;;;;;;6.07;2.10;;;;;;;10.00;100.00;99314.88;4909320;29;20047;-81
2023/10/29 06:26:23;;;;;;;3.90;1.63;;;;;;;9.98;100.00;99299.16;4913826;29;20127;-80
2023/10/29 06:28:49;;;;;;;5.57;1.55;;;;;;;10.04;100.00;99303.31;4911232;29;20050;-81
2023/10/29 06:31:15;;;;;;;2.80;1.52;;;;;;;10.06;100.00;99289.63;4903369;29;20063;-81
2023/10/29 06:33:41;;;;;;;2.88;1.58;;;;;;;10.10;100.00;99302.09;4920078;29;20020;-82
2023/10/29 06:36:08;;;;;;;4.95;1.50;;;;;;;10.09;100.00;99299.69;4933587;29;20040;-81
2023/10/29 06:38:37;;;;;;;5.32;2.00;;;;;;;10.12;100.00;99299.13;4915068;29;20043;-80
2023/10/29 06:41:02;;;;;;;4.00;1.80;;;;;;;10.18;100.00;99307.81;4925715;29;20072;-81
2023/10/29 06:43:28;;;;;;;2.20;1.48;;;;;;;10.21;100.00;99317.91;4909650;29;20040;-80
2023/10/29 06:45:53;;;;;;;4.65;1.40;;;;;;;10.24;100.00;99302.09;4939621;29;20036;-81
2023/10/29 06:48:20;;;;;;;3.50;1.30;;;;;;;10.30;100.00;99292.88;4886253;29;20059;-81
2023/10/29 06:50:45;;;;;;;;;;;;;;;10.35;100.00;99305.31;4927988;29;20023;-81
2023/10/29 06:53:11;;;;;;;4.15;1.77;;;;;;;10.35;100.00;99294.59;4986621;23;19918;-81
2023/10/29 06:55:37;;;;;;;5.00;1.90;;;;;;;10.37;100.00;99295.13;4933310;29;20127;-80
2023/10/29 06:58:03;;;;;;;4.00;1.50;;;;;;;10.41;100.00;99300.63;4943826;29;20039;-80
2023/10/29 07:00:29;;;;;;;;;;;;;;;10.38;100.00;99300.16;4951674;29;20040;-81
2023/10/29 07:02:55;;;;;;;2.58;1.15;;;;;;;10.42;100.00;99304.91;4944158;28;19942;-79
2023/10/29 07:05:25;;;;;;;5.75;1.23;;;;;;;10.45;100.00;99309.66;4953877;28;20035;-81
2023/10/29 07:07:51;;;;;;;4.05;1.48;;;;;;;10.47;100.00;99294.88;4942623;28;20131;-79
2023/10/29 07:10:18;;;;;;;;;;;;;;;10.53;100.00;99306.25;4939418;28;20066;-80
2023/10/29 07:12:43;;;;;;;2.97;1.35;;;;;;;10.52;100.00;99297.44;4926830;29;19925;-80
2023/10/29 07:15:10;;;;;;;3.33;1.63;;;;;;;10.54;100.00;99300.59;4929292;29;20039;-80
2023/10/29 07:17:38;;;;;;;;;;;;;;;10.56;100.00;99290.34;4916889;29;20031;-79
2023/10/29 07:20:04;;;;;;;4.55;1.70;;;;;;;10.57;100.00;99310.69;4930349;28;19923;-80
2023/10/29 07:22:31;;;;;;;4.75;1.15;;;;;;;10.58;100.00;99306.94;4940592;28;20047;-80
2023/10/29 07:24:57;;;;;;;4.00;1.40;;;;;;;10.60;100.00;99310.09;4927905;29;20144;-79
2023/10/29 07:27:22;;;;;;;2.95;1.58;;;;;;;10.69;100.00;99306.66;4909369;29;20078;-79
2023/10/29 07:29:48;;;;;;;2.90;1.42;;;;;;;10.70;100.00;99308.25;4930529;29;20715;-78
2023/10/29 07:32:13;;;;;;;5.30;1.73;;;;;;;10.73;100.00;99313.78;4941871;29;20047;-79
2023/10/29 07:34:40;;;;;;;2.95;1.23;;;;;;;10.74;100.00;99303.88;4928401;29;20052;-80
2023/10/29 07:37:06;;;;;;;3.50;1.50;;;;;;;10.79;100.00;99304.53;4926133;29;20075;-79
2023/10/29 07:39:32;;;;;;;2.85;1.20;;;;;;;10.82;100.00;99303.91;4931195;29;20031;-80
2023/10/29 07:41:57;;;;;;;3.15;1.10;;;;;;;10.87;100.00;99319.09;4944485;28;20035;-79
2023/10/29 07:44:24;;;;;;;3.17;1.05;;;;;;;10.90;100.00;99310.41;4969687;28;20063;-80
2023/10/29 07:46:50;;;;;;;1.45;0.80;;;;;;;10.89;100.00;99298.13;4966624;28;20555;-82
2023/10/29 07:49:15;;;;;;;2.35;1.27;;;;;;;10.90;100.00;99305.06;4949975;28;20046;-81
2023/10/29 07:51:41;;;;;;;4.38;1.00;;;;;;;10.90;100.00;99305.84;4935081;29;20038;-82
2023/10/29 07:54:07;;;;;;;3.92;1.17;;;;;;;10.90;100.00;99305.84;4946948;29;20058;-82
2023/10/29 07:56:33;;;;;;;2.13;0.90;;;;;;;10.93;100.00;99313.28;4957201;28;20058;-82
2023/10/29 07:58:59;;;;;;;3.50;1.30;;;;;;;10.96;100.00;99295.81;4937044;29;20102;-83
2023/10/29 08:01:25;;;;;;;;;;;;;;;11.01;100.00;99293.00;4922183;29;20067;-81
2023/10/29 08:03:51;;;;;;;5.50;1.00;;;;;;;10.98;100.00;99269.53;4924087;29;19974;-82
2023/10/29 08:06:16;;;;;;;3.97;1.20;;;;;;;10.99;100.00;99273.00;4941822;28;20051;-84
2023/10/29 08:08:42;;;;;;;2.22;0.90;;;;;;;11.03;100.00;99290.00;4952849;28;20058;-82
2023/10/29 08:11:21;;;;;;;4.68;1.00;;;;;;;11.03;100.00;99296.16;4943266;28;20036;-82
2023/10/29 08:13:50;;;;;;;3.60;1.00;;;;;;;11.03;100.00;99298.03;4947090;29;20086;-83
2023/10/29 08:16:16;;;;;;;2.53;0.90;;;;;;;11.02;100.00;99283.06;4952749;29;20058;-82
2023/10/29 08:18:41;;;;;;;4.03;1.20;;;;;;;11.05;100.00;99287.84;4955760;28;20032;-82
2023/10/29 08:21:07;;;;;;;6.95;1.30;;;;;;;11.08;100.00;99288.00;4926748;28;20055;-82
2023/10/29 08:23:33;;;;;;;2.78;0.90;;;;;;;11.09;100.00;99283.44;4937204;29;20031;-82
2023/10/29 08:25:58;;;;;;;2.05;1.05;;;;;;;11.08;100.00;99298.72;4938102;29;20412;-82
2023/10/29 08:28:27;;;;;;;2.90;1.05;;;;;;;11.06;100.00;99290.19;4940262;28;20035;-82
2023/10/29 08:30:55;;;;;;;3.13;1.20;;;;;;;11.11;100.00;99298.13;4955717;28;20034;-82
2023/10/29 08:33:21;;;;;;;4.40;1.10;;;;;;;11.13;100.00;99301.28;4923107;28;20047;-82
2023/10/29 08:35:47;;;;;;;1.88;0.90;;;;;;;11.15;100.00;99290.22;4943992;29;20101;-83
2023/10/29 08:38:13;;;;;;;3.42;1.70;;;;;;;11.15;100.00;99309.78;4939178;28;20046;-82
2023/10/29 08:40:39;;;;;;;1.85;0.90;;;;;;;11.17;100.00;99304.09;4952597;28;20031;-81
2023/10/29 08:43:06;;;;;;;2.58;0.93;;;;;;;11.21;100.00;99307.75;4952904;28;20527;-83
2023/10/29 08:45:32;;;;;;;5.10;1.30;;;;;;;11.23;100.00;99304.78;4936412;29;20090;-83
2023/10/29 08:47:58;;;;;;;5.65;1.10;;;;;;;11.26;100.00;99309.53;4935826;29;20043;-84
2023/10/29 08:50:24;;;;;;;2.47;1.27;;;;;;;11.37;100.00;99310.81;4946281;28;20027;-84
2023/10/29 08:52:49;;;;;;;3.47;1.00;;;;;;;11.40;100.00;99288.78;4940177;29;20089;-85
2023/10/29 08:55:16;;;;;;;3.60;1.20;;;;;;;11.46;100.00;99298.25;4949164;28;20050;-84
2023/10/29 08:57:41;;;;;;;3.67;1.60;;;;;;;11.48;100.00;99304.88;4937286;29;20405;-84
2023/10/29 09:00:07;;;;;;;2.33;1.55;;;;;;;11.53;100.00;99293.22;4925456;28;20036;-84
2023/10/29 09:02:33;;;;;;;4.45;1.40;;;;;;;11.63;100.00;99311.69;4930605;29;20548;-85
2023/10/29 09:04:59;;;;;;;5.10;1.70;;;;;;;11.71;100.00;99300.19;4929664;29;20177;-85
2023/10/29 09:07:25;;;;;;;2.50;1.30;;;;;;;11.83;100.00;99307.69;4916117;28;20040;-85
2023/10/29 09:09:53;;;;;;;3.10;1.30;;;;;;;11.88;100.00;99298.72;4912179;29;20075;-85
2023/10/29 09:12:19;;;;;;;2.28;1.15;;;;;;;11.98;100.00;99298.41;4929249;28;20027;-85
2023/10/29 09:14:45;;;;;;;2.65;0.90;;;;;;;12.10;100.00;99295.09;4922761;28;20038;-85
2023/10/29 09:17:11;;;;;;;5.90;1.35;;;;;;;12.15;100.00;99282.31;4929883;29;20413;-84
2023/10/29 09:19:36;;;;;;;2.70;0.90;;;;;;;12.24;100.00;99279.63;4908056;29;20066;-85
2023/10/29 09:22:02;;;;;;;2.20;1.02;;;;;;;12.32;100.00;99286.09;4953130;28;20031;-86
2023/10/29 09:24:28;;;;;;;3.38;1.20;;;;;;;12.43;100.00;99314.22;4941139;28;20050;-87
2023/10/29 09:26:54;;;;;;;3.13;0.98;;;;;;;12.52;100.00;99307.72;4942919;28;20038;-86
2023/10/29 09:29:20;;;;;;;3.80;1.00;;;;;;;12.62;100.00;99309.31;4941702;28;20503;-85
2023/10/29 09:31:45;;;;;;;2.83;1.13;;;;;;;12.72;100.00;99306.28;4933712;29;20109;-85
2023/10/29 09:34:11;;;;;;;3.50;1.05;;;;;;;12.87;100.00;99306.91;4941030;28;20122;-85
2023/10/29 09:36:37;;;;;;;;;;;;;;;12.94;100.00;99309.88;4953450;28;20109;-86
2023/10/29 09:39:03;;;;;;;2.95;0.82;;;;;;;13.04;100.00;99306.88;4916114;29;19915;-86
2023/10/29 09:41:31;;;;;;;2.20;0.75;;;;;;;13.11;100.00;99304.47;4924475;29;20054;-84
2023/10/29 09:43:58;;;;;;;1.85;0.90;;;;;;;13.22;100.00;99318.41;4945197;28;20094;-85
2023/10/29 09:46:24;;;;;;;3.72;1.45;;;;;;;13.31;100.00;99306.50;4930320;28;20070;-84
2023/10/29 09:48:51;;;;;;;4.20;0.80;;;;;;;13.39;100.00;99302.97;4931273;29;20062;-83
2023/10/29 09:51:19;;;;;;;3.83;1.45;;;;;;;13.48;100.00;99299.47;4900173;28;20453;-86
2023/10/29 09:53:45;;;;;;;4.35;0.80;;;;;;;13.56;100.00;99295.97;4907645;29;20589;-85
2023/10/29 09:56:12;;;;;;;5.25;1.10;;;;;;;13.62;100.00;99295.47;4944167;28;20042;-81
2023/10/29 09:58:38;;;;;;;2.45;1.08;;;;;;;13.74;100.00;99294.72;4924723;29;20040;-83
2023/10/29 10:01:04;;;;;;;;;;;;;;;13.84;100.00;99291.69;4929166;29;20072;-84
2023/10/29 10:03:31;;;;;;;2.20;0.90;;;;;;;13.91;100.00;99286.56;4924723;28;20447;-84
2023/10/29 10:05:58;;;;;;;3.60;0.98;;;;;;;13.99;100.00;99292.22;4920693;29;20044;-83
2023/10/29 10:08:28;;;;;;;3.03;1.10;;;;;;;14.07;100.00;99296.75;4913971;28;20050;-82
2023/10/29 10:10:55;;;;;;;3.55;1.00;;;;;;;14.12;100.00;99288.50;4909346;29;20047;-83
2023/10/29 10:13:37;;;;;;;6.43;1.25;;;;;;;14.18;100.00;99292.56;4936537;28;20417;-83
2023/10/29 10:16:06;;;;;;;1.95;0.70;;;;;;;14.34;100.00;99285.44;4916533;29;20136;-86
2023/10/29 10:18:57;;;;;;;2.72;1.20;;;;;;;14.48;100.00;99293.28;4914017;29;20043;-84
2023/10/29 10:21:50;;;;;;;;;;;;;;;14.48;100.00;99306.75;4946096;28;20569;-82
2023/10/29 10:24:16;;;;;;;4.35;1.38;;;;;;;14.50;100.00;99295.66;4924522;28;19997;-83
2023/10/29 10:26:42;;;;;;;;;;;;;;;14.54;100.00;99304.66;4915254;29;20107;-83
2023/10/29 10:29:08;;;;;;;1.67;0.63;;;;;;;14.62;100.00;99303.78;4928805;29;20005;-83
2023/10/29 10:31:38;;;;;;;3.92;0.93;;;;;;;14.66;100.00;99312.78;4927239;29;20031;-82
2023/10/29 10:34:14;;;;;;;4.45;1.05;;;;;;;14.70;100.00;99316.41;4922934;29;20099;-82
2023/10/29 10:36:41;;;;;;;1.83;0.90;;;;;;;14.67;100.00;99319.75;4946100;29;20715;-82
2023/10/29 10:39:08;;;;;;;2.42;1.10;;;;;;;14.69;100.00;99317.50;4931817;29;20043;-82
2023/10/29 10:41:45;;;;;;;2.50;0.85;;;;;;;14.78;100.00;99334.41;4917139;29;20039;-81
2023/10/29 10:44:13;;;;;;;4.60;1.00;;;;;;;14.88;100.00;99320.50;4948724;28;20383;-84
2023/10/29 10:46:52;;;;;;;2.08;0.95;;;;;;;14.83;100.00;99344.94;4942482;28;20078;-82
2023/10/29 10:49:19;;;;;;;9.25;1.50;;;;;;;14.76;100.00;99350.09;4945918;28;20792;-83
2023/10/29 10:51:48;;;;;;;4.30;1.10;;;;;;;14.66;100.00;99361.28;4929090;29;20494;-80
2023/10/29 10:54:20;;;;;;;5.60;1.20;;;;;;;14.45;100.00;99372.81;4924930;28;20511;-81
2023/10/29 10:56:48;;;;;;;3.03;1.20;;;;;;;14.26;100.00;99382.47;4928286;29;20039;-81
2023/10/29 10:59:15;;;;;;;3.60;1.10;;;;;;;14.12;100.00;99398.88;4916836;29;20031;-84
2023/10/29 11:01:40;;;;;;;2.67;1.00;;;;;;;13.96;100.00;99411.31;4943579;29;20047;-85
2023/10/29 11:04:08;;;;;;;4.82;1.30;;;;;;;13.71;100.00;99394.16;4931881;29;20086;-81
2023/10/29 11:06:38;;;;;;;2.38;0.93;;;;;;;13.59;100.00;99397.50;4925956;28;20161;-80
2023/10/29 11:09:06;;;;;;;2.85;1.10;;;;;;;13.52;100.00;99391.84;4923521;29;20043;-81
2023/10/29 11:11:35;;;;;;;3.55;1.40;;;;;;;13.42;100.00;99393.00;4911753;28;20039;-80
2023/10/29 11:14:12;;;;;;;3.30;1.08;;;;;;;13.32;100.00;99375.28;4932389;29;20866;-83
2023/10/29 11:16:49;;;;;;;4.05;1.08;;;;;;;13.19;100.00;99383.50;4944070;28;20043;-80
2023/10/29 11:19:47;;;;;;;3.53;1.33;;;;;;;13.22;100.00;99388.28;4936166;29;20035;-81
2023/10/29 11:22:22;;;;;;;2.50;1.00;;;;;;;13.20;100.00;99398.53;4940226;29;20141;-80
2023/10/29 11:25:11;;;;;;;3.25;1.17;;;;;;;13.14;100.00;99403.31;4940276;29;20041;-82
2023/10/29 11:27:41;;;;;;;3.95;1.00;;;;;;;13.10;100.00;99413.91;4918684;28;20063;-81
2023/10/29 11:30:12;;;;;;;3.53;1.00;;;;;;;13.14;100.00;99411.38;4927941;29;20169;-82
2023/10/29 11:32:38;;;;;;;7.72;1.55;;;;;;;13.12;100.00;99408.19;4929618;28;20047;-80
2023/10/29 11:35:19;;;;;;;3.63;1.13;;;;;;;13.12;100.00;99400.91;4945093;28;20054;-81
2023/10/29 11:37:45;;;;;;;3.08;1.20;;;;;;;13.18;100.00;99409.59;4927344;29;20131;-80
2023/10/29 11:40:24;;;;;;;3.10;1.15;;;;;;;13.31;100.00;99405.97;4927020;29;20839;-80
2023/10/29 11:42:53;;;;;;;3.35;1.30;;;;;;;13.42;100.00;99408.34;4941612;28;20039;-83
2023/10/29 11:45:27;;;;;;;4.57;1.05;;;;;;;13.53;100.00;99393.41;4940223;28;20042;-80
2023/10/29 11:48:09;;;;;;;4.00;1.65;;;;;;;13.62;100.00;99407.66;4946055;28;20082;-80